createdAt,value
2022-12-08T00:02:28.446Z,92.36
2022-12-08T00:05:49.561Z,92.24
2022-12-08T00:09:10.967Z,93.08
2022-12-08T00:12:17.714Z,93.39
2022-12-08T00:15:20.139Z,92.90
2022-12-08T00:18:22.897Z,92.33
2022-12-08T00:21:25.354Z,92.71
2022-12-08T00:24:31.479Z,92.02
2022-12-08T00:27:33.982Z,92.39
2022-12-08T00:30:40.112Z,92.30
2022-12-08T00:33:42.605Z,93.14
2022-12-08T00:36:45.502Z,93.56
2022-12-08T00:39:48.187Z,93.95
2022-12-08T00:42:50.626Z,93.98
2022-12-08T00:45:53.156Z,93.80
2022-12-08T00:48:55.631Z,94.01
2022-12-08T00:51:58.097Z,93.34
2022-12-08T00:55:00.701Z,93.88
2022-12-08T00:58:03.172Z,93.66
2022-12-08T01:01:11.004Z,93.65
2022-12-08T01:04:18.483Z,92.70
2022-12-08T01:07:20.947Z,93.44
2022-12-08T01:10:23.580Z,93.50
2022-12-08T01:13:26.003Z,92.43
2022-12-08T01:16:31.201Z,93.27
2022-12-08T01:19:33.847Z,92.39
2022-12-08T01:22:36.267Z,93.06
2022-12-08T01:25:38.657Z,93.93
2022-12-08T01:28:41.826Z,94.17
2022-12-08T01:31:44.235Z,93.55
2022-12-08T01:34:46.823Z,94.04
2022-12-08T01:37:50.195Z,94.32
2022-12-08T01:40:52.600Z,94.09
2022-12-08T01:44:08.299Z,93.80
2022-12-08T01:47:11.719Z,92.34
2022-12-08T01:50:16.120Z,91.19
2022-12-08T01:53:30.805Z,91.19
2022-12-08T01:56:40.621Z,91.65
2022-12-08T01:59:52.389Z,92.24
2022-12-08T02:03:00.852Z,92.60
2022-12-08T02:06:04.008Z,92.15
2022-12-08T02:09:06.802Z,92.72
2022-12-08T02:12:10.325Z,92.27
2022-12-08T02:15:13.019Z,92.81
2022-12-08T02:18:35.513Z,93.35
2022-12-08T02:21:58.660Z,93.98
2022-12-08T02:25:25.365Z,91.95
2022-12-08T02:29:29.709Z,92.29
2022-12-08T02:32:53.646Z,92.21
2022-12-08T02:35:58.925Z,91.47
2022-12-08T02:39:12.009Z,91.18
2022-12-08T02:42:14.327Z,91.80
2022-12-08T02:45:26.872Z,91.66
2022-12-08T02:48:29.962Z,92.40
2022-12-08T02:51:32.435Z,92.39
2022-12-08T02:54:36.510Z,92.52
2022-12-08T02:58:00.600Z,92.62
2022-12-08T03:01:23.121Z,91.50
2022-12-08T03:04:34.633Z,92.53
2022-12-08T03:07:53.995Z,92.81
2022-12-08T03:11:00.065Z,92.78
2022-12-08T03:14:04.387Z,92.72
2022-12-08T03:17:07.219Z,91.76
2022-12-08T03:20:13.251Z,92.16
2022-12-08T03:23:17.628Z,91.62
2022-12-08T03:26:28.871Z,92.47
2022-12-08T03:29:32.545Z,91.93
2022-12-08T03:32:49.461Z,91.39
2022-12-08T03:35:53.120Z,92.16
2022-12-08T03:38:55.663Z,92.61
2022-12-08T03:41:58.939Z,93.10
2022-12-08T03:45:01.282Z,92.50
2022-12-08T03:48:03.775Z,92.63
2022-12-08T03:51:06.287Z,92.63
2022-12-08T03:54:08.746Z,92.50
2022-12-08T03:57:11.233Z,93.77
2022-12-08T04:00:15.928Z,93.78
2022-12-08T04:03:18.434Z,93.68
2022-12-08T04:06:21.761Z,93.97
2022-12-08T04:09:24.194Z,93.65
2022-12-08T04:12:26.575Z,93.91
2022-12-08T04:15:29.081Z,93.16
2022-12-08T04:18:32.304Z,93.42
2022-12-08T04:21:34.717Z,93.45
2022-12-08T04:24:37.139Z,92.99
2022-12-08T04:27:39.630Z,93.34
2022-12-08T04:30:42.242Z,93.25
2022-12-08T04:33:45.067Z,93.50
2022-12-08T04:36:47.449Z,94.00
2022-12-08T04:39:50.849Z,93.01
2022-12-08T04:42:53.260Z,93.82
2022-12-08T04:45:56.028Z,93.67
2022-12-08T04:48:58.851Z,93.53
2022-12-08T04:52:01.297Z,93.02
2022-12-08T04:55:04.467Z,93.54
2022-12-08T04:58:06.980Z,93.88
2022-12-08T05:01:09.559Z,93.76
2022-12-08T05:04:12.032Z,92.90
2022-12-08T05:07:14.420Z,93.20
2022-12-08T05:10:17.107Z,93.79
2022-12-08T05:13:19.565Z,93.65
2022-12-08T05:16:22.065Z,93.45
2022-12-08T05:19:24.766Z,93.68
2022-12-08T05:22:27.179Z,93.89
2022-12-08T05:25:29.695Z,94.25
2022-12-08T05:28:41.157Z,93.97
2022-12-08T05:31:44.607Z,94.12
2022-12-08T05:34:47.070Z,93.88
2022-12-08T05:37:49.583Z,94.07
2022-12-08T05:40:52.037Z,93.88
2022-12-08T05:43:54.501Z,93.50
2022-12-08T05:46:56.939Z,93.63
2022-12-08T05:49:59.351Z,93.39
2022-12-08T05:53:01.820Z,92.88
2022-12-08T05:56:04.395Z,92.28
2022-12-08T05:59:07.633Z,92.25
2022-12-08T06:02:10.352Z,92.41
2022-12-08T06:05:12.939Z,93.37
2022-12-08T06:08:15.585Z,92.73
2022-12-08T06:11:26.667Z,93.06
2022-12-08T06:14:29.258Z,93.52
2022-12-08T06:17:31.701Z,93.89
2022-12-08T06:20:34.784Z,92.37
2022-12-08T06:23:37.906Z,92.73
2022-12-08T06:26:41.497Z,92.94
2022-12-08T06:29:43.931Z,93.39
2022-12-08T06:32:46.373Z,93.39
2022-12-08T06:35:48.821Z,92.54
2022-12-08T06:38:51.258Z,92.14
2022-12-08T06:42:11.916Z,92.17
2022-12-08T06:45:16.712Z,91.89
2022-12-08T06:48:19.460Z,91.40
2022-12-08T06:51:23.481Z,91.43
2022-12-08T06:54:26.629Z,91.30
2022-12-08T06:57:29.145Z,91.21
2022-12-08T07:00:31.600Z,90.76
2022-12-08T07:03:34.149Z,90.77
2022-12-08T07:06:36.920Z,90.52
2022-12-08T07:09:39.480Z,90.32
2022-12-08T07:12:41.975Z,90.20
2022-12-08T07:15:44.661Z,89.98
2022-12-08T07:18:47.116Z,89.97
2022-12-08T07:21:49.820Z,89.64
2022-12-08T07:24:52.284Z,90.82
2022-12-08T07:27:54.823Z,90.76
2022-12-08T07:30:57.314Z,89.80
2022-12-08T07:34:00.536Z,89.74
2022-12-08T07:37:02.969Z,89.82
2022-12-08T07:40:07.596Z,89.95
2022-12-08T07:43:10.244Z,90.00
2022-12-08T07:46:14.661Z,89.08
2022-12-08T07:49:17.300Z,89.56
2022-12-08T07:52:19.852Z,89.74
2022-12-08T07:55:22.292Z,89.53
2022-12-08T07:58:25.777Z,89.09
2022-12-08T08:01:30.759Z,89.01
2022-12-08T08:04:33.417Z,88.64
2022-12-08T08:07:37.242Z,88.60
2022-12-08T08:10:39.833Z,90.27
2022-12-08T08:13:42.253Z,89.88
2022-12-08T08:16:47.456Z,90.10
2022-12-08T08:19:50.104Z,90.75
2022-12-08T08:22:52.659Z,90.90
2022-12-08T08:25:55.065Z,90.48
2022-12-08T08:28:57.635Z,90.35
2022-12-08T08:32:00.285Z,90.69
2022-12-08T08:35:06.242Z,90.14
2022-12-08T08:38:08.808Z,89.09
2022-12-08T08:41:11.645Z,89.12
2022-12-08T08:44:15.058Z,89.67
2022-12-08T08:47:17.487Z,88.49
2022-12-08T08:50:19.876Z,87.93
2022-12-08T08:53:22.939Z,87.81
2022-12-08T08:56:26.104Z,88.11
2022-12-08T08:59:29.042Z,87.80
2022-12-08T09:02:31.541Z,87.81
2022-12-08T09:05:34.169Z,87.86
2022-12-08T09:08:36.553Z,88.19
2022-12-08T09:11:40.714Z,87.58
2022-12-08T09:14:43.201Z,87.53
2022-12-08T09:17:45.686Z,87.45
2022-12-08T09:20:48.126Z,86.62
2022-12-08T09:23:52.869Z,87.75
2022-12-08T09:26:55.295Z,87.94
2022-12-08T09:29:57.993Z,88.65
2022-12-08T09:33:00.654Z,89.01
2022-12-08T09:36:04.043Z,87.79
2022-12-08T09:39:07.248Z,87.31
2022-12-08T09:42:10.450Z,86.99
2022-12-08T09:45:14.860Z,86.62
2022-12-08T09:48:33.408Z,86.55
2022-12-08T09:51:38.766Z,86.39
2022-12-08T09:54:41.339Z,85.93
2022-12-08T09:57:44.828Z,86.35
2022-12-08T10:00:47.632Z,85.38
2022-12-08T10:03:50.198Z,84.94
2022-12-08T10:06:52.557Z,85.64
2022-12-08T10:10:03.707Z,84.52
2022-12-08T10:13:24.481Z,85.29
2022-12-08T10:16:37.089Z,84.22
2022-12-08T10:19:40.938Z,82.56
2022-12-08T10:22:45.096Z,82.21
2022-12-08T10:25:49.946Z,83.09
2022-12-08T10:28:52.688Z,82.54
2022-12-08T10:31:59.991Z,82.54
2022-12-08T10:35:08.431Z,82.31
2022-12-08T10:38:21.645Z,82.67
2022-12-08T10:41:24.966Z,82.40
2022-12-08T10:44:27.492Z,83.44
2022-12-08T10:47:30.640Z,82.42
2022-12-08T10:50:46.434Z,81.65
2022-12-08T10:53:48.915Z,81.97
2022-12-08T10:56:55.905Z,80.88
2022-12-08T10:59:59.070Z,80.23
2022-12-08T11:03:05.340Z,81.23
2022-12-08T11:06:15.824Z,79.91
2022-12-08T11:09:18.548Z,79.54
2022-12-08T11:12:22.516Z,79.99
2022-12-08T11:15:33.290Z,80.33
2022-12-08T11:18:44.656Z,81.39
2022-12-08T11:21:47.817Z,82.50
2022-12-08T11:25:03.674Z,81.19
2022-12-08T11:28:09.886Z,81.49
2022-12-08T11:31:21.150Z,81.28
2022-12-08T11:35:02.063Z,82.10
2022-12-08T11:38:21.536Z,81.10
2022-12-08T11:41:29.054Z,81.25
2022-12-08T11:44:51.608Z,80.76
2022-12-08T11:48:21.787Z,80.28
2022-12-08T11:51:29.751Z,80.44
2022-12-08T11:54:53.469Z,78.70
2022-12-08T11:57:57.927Z,78.99
2022-12-08T12:01:01.498Z,78.79
2022-12-08T12:04:19.899Z,79.28
2022-12-08T12:07:37.772Z,80.20
2022-12-08T12:10:58.332Z,79.91
2022-12-08T12:14:21.493Z,80.74
2022-12-08T12:17:48.399Z,79.93
2022-12-08T12:20:58.370Z,80.05
2022-12-08T12:24:06.682Z,81.52
2022-12-08T12:27:23.767Z,84.35
2022-12-08T12:30:28.168Z,85.59
2022-12-08T12:33:31.472Z,85.49
2022-12-08T12:37:03.272Z,85.94
2022-12-08T12:40:28.171Z,85.42
2022-12-08T12:43:36.336Z,86.93
2022-12-08T12:46:50.888Z,86.96
2022-12-08T12:50:05.778Z,86.97
2022-12-08T12:53:37.533Z,87.54
2022-12-08T12:56:48.502Z,87.32
2022-12-08T12:59:55.826Z,87.05
2022-12-08T13:02:59.163Z,87.59
2022-12-08T13:06:02.423Z,88.03
2022-12-08T13:09:07.291Z,87.90
2022-12-08T13:12:20.268Z,87.73
2022-12-08T13:15:22.799Z,88.42
2022-12-08T13:18:28.742Z,87.90
2022-12-08T13:21:38.854Z,88.16
2022-12-08T13:24:42.274Z,87.52
2022-12-08T13:27:53.124Z,87.44
2022-12-08T13:31:02.963Z,87.28
2022-12-08T13:34:07.275Z,87.02
2022-12-08T13:37:13.710Z,87.01
2022-12-08T13:40:24.400Z,86.92
2022-12-08T13:43:47.280Z,86.77
2022-12-08T13:47:25.073Z,87.22
2022-12-08T13:57:29.992Z,87.17
2022-12-08T14:00:32.874Z,87.72
2022-12-08T14:04:12.904Z,87.45
2022-12-08T14:07:13.003Z,87.23
2022-12-08T14:10:22.598Z,87.27
2022-12-08T14:13:25.032Z,87.01
2022-12-08T14:16:37.653Z,86.62
2022-12-08T14:19:43.497Z,86.90
2022-12-08T14:22:46.728Z,86.73
2022-12-08T14:25:49.165Z,86.82
2022-12-08T14:28:51.734Z,86.66
2022-12-08T14:31:54.189Z,86.43
2022-12-08T14:35:18.870Z,86.03
2022-12-08T14:38:22.885Z,86.33
2022-12-08T14:41:32.416Z,85.99
2022-12-08T14:44:39.085Z,86.42
2022-12-08T14:47:41.691Z,86.20
2022-12-08T14:51:01.897Z,86.48
2022-12-08T14:54:14.244Z,86.29
2022-12-08T14:57:16.893Z,86.28
2022-12-08T15:00:21.074Z,86.56
2022-12-08T15:03:24.748Z,86.97
2022-12-08T15:06:27.222Z,87.74
2022-12-08T15:09:31.096Z,87.81
2022-12-08T15:12:33.573Z,88.07
2022-12-08T15:15:47.552Z,88.42
2022-12-08T15:19:02.476Z,87.66
2022-12-08T15:22:14.054Z,87.81
2022-12-08T15:25:16.536Z,88.19
2022-12-08T15:28:23.984Z,88.00
2022-12-08T15:31:29.128Z,88.40
2022-12-08T15:34:31.680Z,88.05
2022-12-08T15:37:34.128Z,87.85
2022-12-08T15:40:36.542Z,87.59
2022-12-08T15:43:38.893Z,87.20
2022-12-08T15:46:41.307Z,87.55
2022-12-08T15:49:44.099Z,87.91
2022-12-08T15:52:47.485Z,87.71
2022-12-08T15:56:19.089Z,88.06
2022-12-08T15:59:20.934Z,88.40
2022-12-08T16:02:25.241Z,88.52
2022-12-08T16:06:01.739Z,88.29
2022-12-08T16:09:06.150Z,87.55
2022-12-08T16:16:07.917Z,87.68
2022-12-08T16:19:14.240Z,87.80
2022-12-08T16:26:17.089Z,87.35
2022-12-08T16:29:11.062Z,87.31
2022-12-08T16:32:14.826Z,87.31
2022-12-08T16:35:17.476Z,86.28
2022-12-08T16:38:19.925Z,85.78
2022-12-08T16:41:40.721Z,86.48
2022-12-08T16:44:43.168Z,85.94
2022-12-08T16:47:56.585Z,86.15
2022-12-08T16:50:59.062Z,85.84
2022-12-08T16:54:01.468Z,85.27
2022-12-08T16:57:03.914Z,84.77
2022-12-08T17:00:09.126Z,83.27
2022-12-08T17:03:14.754Z,82.82
2022-12-08T17:06:18.828Z,83.88
2022-12-08T17:09:21.387Z,83.65
2022-12-08T17:12:23.883Z,82.78
2022-12-08T17:15:26.345Z,83.54
2022-12-08T17:18:29.095Z,83.79
2022-12-08T17:21:32.146Z,85.76
2022-12-08T17:24:34.612Z,85.60
2022-12-08T17:27:37.988Z,85.90
2022-12-08T17:30:40.391Z,86.13
2022-12-08T17:33:43.149Z,85.73
2022-12-08T17:36:45.648Z,85.46
2022-12-08T17:39:48.374Z,85.62
2022-12-08T17:42:50.734Z,84.25
2022-12-08T17:45:53.509Z,83.97
2022-12-08T17:48:56.290Z,82.38
2022-12-08T17:52:01.512Z,83.05
2022-12-08T17:55:04.200Z,82.89
2022-12-08T17:58:07.748Z,81.39
2022-12-08T18:01:11.289Z,80.91
2022-12-08T18:04:13.875Z,80.83
2022-12-08T18:07:16.341Z,80.80
2022-12-08T18:10:19.366Z,80.99
2022-12-08T18:13:22.021Z,81.06
2022-12-08T18:16:26.176Z,80.36
2022-12-08T18:19:28.956Z,79.61
2022-12-08T18:22:32.609Z,79.67
2022-12-08T18:25:35.906Z,78.55
2022-12-08T18:28:38.922Z,79.30
2022-12-08T18:31:41.352Z,78.85
2022-12-08T18:34:43.857Z,79.45
2022-12-08T18:37:47.076Z,80.34
2022-12-08T18:40:49.793Z,80.11
2022-12-08T18:43:53.484Z,80.19
2022-12-08T18:46:56.198Z,81.06
2022-12-08T18:50:00.200Z,81.63
2022-12-08T18:53:02.849Z,80.91
2022-12-08T18:56:06.247Z,81.59
2022-12-08T18:59:12.006Z,80.90
2022-12-08T19:02:14.982Z,81.45
2022-12-08T19:05:17.647Z,81.91
2022-12-08T19:08:20.726Z,81.08
2022-12-08T19:11:25.894Z,81.88
2022-12-08T19:14:30.441Z,81.12
2022-12-08T19:17:33.232Z,80.53
2022-12-08T19:20:36.226Z,80.42
2022-12-08T19:23:40.151Z,80.27
2022-12-08T19:26:43.273Z,80.57
2022-12-08T19:29:45.952Z,79.63
2022-12-08T19:32:50.124Z,79.15
2022-12-08T19:35:53.814Z,79.70
2022-12-08T19:39:15.081Z,79.36
2022-12-08T19:42:38.208Z,79.45
2022-12-08T19:45:40.980Z,78.92
2022-12-08T19:48:44.215Z,79.11
2022-12-08T19:51:47.011Z,78.29
2022-12-08T19:54:49.616Z,78.16
2022-12-08T19:57:52.664Z,77.94
2022-12-08T20:00:55.581Z,77.95
2022-12-08T20:03:58.228Z,78.94
2022-12-08T20:07:02.133Z,78.85
2022-12-08T20:10:07.960Z,78.42
2022-12-08T20:13:29.990Z,78.13
2022-12-08T20:16:32.837Z,78.70
2022-12-08T20:19:35.618Z,79.89
2022-12-08T20:22:38.736Z,78.76
2022-12-08T20:25:43.140Z,79.76
2022-12-08T20:28:45.963Z,79.43
2022-12-08T20:31:48.891Z,79.03
2022-12-08T20:34:52.031Z,80.26
2022-12-08T20:37:54.698Z,79.91
2022-12-08T20:40:58.516Z,79.82
2022-12-08T20:44:01.635Z,79.69
2022-12-08T20:47:04.378Z,79.98
2022-12-08T20:50:08.596Z,79.89
2022-12-08T20:53:11.578Z,79.58
2022-12-08T20:56:19.236Z,79.75
2022-12-08T20:59:21.978Z,79.84
2022-12-08T21:02:28.012Z,79.86
2022-12-08T21:05:31.044Z,79.02
2022-12-08T21:08:33.674Z,79.80
2022-12-08T21:11:36.546Z,79.18
2022-12-08T21:14:40.107Z,78.61
2022-12-08T21:17:42.709Z,78.88
2022-12-08T21:20:45.500Z,78.27
2022-12-08T21:23:48.092Z,79.14
2022-12-08T21:26:50.730Z,79.28
2022-12-08T21:29:53.246Z,80.81
2022-12-08T21:32:55.967Z,79.14
2022-12-08T21:36:03.183Z,80.07
2022-12-08T21:39:11.305Z,80.11
2022-12-08T21:42:34.220Z,80.63
2022-12-08T21:45:37.189Z,80.52
2022-12-08T21:48:39.761Z,81.54
2022-12-08T21:51:43.186Z,81.37
2022-12-08T21:54:45.810Z,81.01
2022-12-08T21:57:48.247Z,81.21
2022-12-08T22:00:50.742Z,81.41
2022-12-08T22:03:53.462Z,80.90
2022-12-08T22:06:56.132Z,81.57
2022-12-08T22:09:58.528Z,81.55
2022-12-08T22:13:00.912Z,81.45
2022-12-08T22:16:08.091Z,82.79
2022-12-08T22:19:10.695Z,82.29
2022-12-08T22:22:16.237Z,82.97
2022-12-08T22:25:18.785Z,83.62
2022-12-08T22:28:21.163Z,84.22
2022-12-08T22:31:23.735Z,84.16
2022-12-08T22:34:26.250Z,84.69
2022-12-08T22:37:28.604Z,83.82
2022-12-08T22:40:31.141Z,84.37
2022-12-08T22:43:34.035Z,83.84
2022-12-08T22:46:36.512Z,83.55
2022-12-08T22:49:38.973Z,85.39
2022-12-08T22:52:41.687Z,84.46
2022-12-08T22:55:44.752Z,85.90
2022-12-08T22:58:48.642Z,85.60
2022-12-08T23:01:51.053Z,86.16
2022-12-08T23:04:56.970Z,86.34
2022-12-08T23:07:59.950Z,87.03
2022-12-08T23:11:02.533Z,87.52
2022-12-08T23:14:04.952Z,88.40
2022-12-08T23:17:08.213Z,88.47
2022-12-08T23:20:11.834Z,88.43
2022-12-08T23:23:14.447Z,88.65
2022-12-08T23:26:19.019Z,89.28
2022-12-08T23:29:21.786Z,88.41
2022-12-08T23:32:24.746Z,88.66
2022-12-08T23:35:27.474Z,89.51
2022-12-08T23:38:30.321Z,89.44
2022-12-08T23:41:33.198Z,89.84
2022-12-08T23:44:35.772Z,89.44
2022-12-08T23:47:38.266Z,89.37
2022-12-08T23:50:40.640Z,88.29
2022-12-08T23:53:44.074Z,88.68
2022-12-08T23:56:46.773Z,88.33
2022-12-08T23:59:49.344Z,89.12
